Pine Cliff, Utah
Current Conditions -  °F | °C
As of 10:53 AM on Thursday 23 Oct 2014 (Local Time) from KEVW Reporting Station
Clear Clear  
Wind Chill: 12°   Ceiling: Unl
Heat Index: 12°   Visibility: 10mi
Dew Point: -3°   Wind: 14mph
Humidity: 34%   Direction: 240°WSW
Pressure: 30.23"   Gusts: NA
Location:  40.9431°N, 111.212°W
Report Text: KEVW 231653Z AUTO 24012KT 10SM CLR 12/M03 A3023 RMK AO2 SLP186 T01221033 TSNO
Loading
Personal Weather Stations






























Interactive Weather Map
Tropical Storm Tracking
New forecast layout! Learn more

10-Day Weather Forecast

Advertisements
Track Severe Weather on mobile